sensor_id;sensor_type;location;lat;lon;timestamp;pressure;altitude;pressure_sealevel;temperature;humidity
9839;BME280;4958;48.150;11.506;2023-08-24T00:01:33;95552.41;;;27.81;59.79
9839;BME280;4958;48.150;11.506;2023-08-24T00:03:59;95544.47;;;27.81;59.29
9839;BME280;4958;48.150;11.506;2023-08-24T00:06:26;95556.47;;;27.74;60.10
9839;BME280;4958;48.150;11.506;2023-08-24T00:08:52;95562.91;;;27.68;60.28
9839;BME280;4958;48.150;11.506;2023-08-24T00:11:19;95582.88;;;27.55;61.10
9839;BME280;4958;48.150;11.506;2023-08-24T00:13:47;95584.19;;;27.58;60.88
9839;BME280;4958;48.150;11.506;2023-08-24T00:16:16;95592.34;;;27.61;60.99
9839;BME280;4958;48.150;11.506;2023-08-24T00:18:43;95592.88;;;27.63;61.03
9839;BME280;4958;48.150;11.506;2023-08-24T00:21:10;95602.44;;;27.59;60.80
9839;BME280;4958;48.150;11.506;2023-08-24T00:23:37;95603.25;;;27.55;61.13
9839;BME280;4958;48.150;11.506;2023-08-24T00:26:03;95602.03;;;27.47;61.56
9839;BME280;4958;48.150;11.506;2023-08-24T00:28:30;95603.38;;;27.44;61.13
9839;BME280;4958;48.150;11.506;2023-08-24T00:30:57;95607.41;;;27.37;61.92
9839;BME280;4958;48.150;11.506;2023-08-24T00:33:24;95607.78;;;27.30;62.17
9839;BME280;4958;48.150;11.506;2023-08-24T00:35:50;95625.53;;;27.25;61.86
9839;BME280;4958;48.150;11.506;2023-08-24T00:38:17;95652.59;;;27.16;62.94
9839;BME280;4958;48.150;11.506;2023-08-24T00:40:43;95655.06;;;27.08;62.95
9839;BME280;4958;48.150;11.506;2023-08-24T00:43:10;95652.13;;;27.09;63.25
9839;BME280;4958;48.150;11.506;2023-08-24T00:45:37;95656.38;;;27.10;63.50
9839;BME280;4958;48.150;11.506;2023-08-24T00:48:05;95663.25;;;27.06;63.67
9839;BME280;4958;48.150;11.506;2023-08-24T00:50:32;95661.41;;;27.07;63.52
9839;BME280;4958;48.150;11.506;2023-08-24T00:52:58;95680.22;;;27.00;64.39
9839;BME280;4958;48.150;11.506;2023-08-24T00:55:25;95660.34;;;27.08;63.77
9839;BME280;4958;48.150;11.506;2023-08-24T00:57:52;95656.88;;;27.12;63.50
9839;BME280;4958;48.150;11.506;2023-08-24T01:00:18;95646.75;;;27.20;63.15
9839;BME280;4958;48.150;11.506;2023-08-24T01:02:45;95636.41;;;27.23;62.78
9839;BME280;4958;48.150;11.506;2023-08-24T01:05:12;95646.31;;;27.12;63.31
9839;BME280;4958;48.150;11.506;2023-08-24T01:07:40;95643.06;;;27.15;63.29
9839;BME280;4958;48.150;11.506;2023-08-24T01:10:08;95647.38;;;27.11;63.78
9839;BME280;4958;48.150;11.506;2023-08-24T01:12:44;95646.31;;;27.12;63.75
9839;BME280;4958;48.150;11.506;2023-08-24T01:15:18;95641.84;;;27.08;63.77
9839;BME280;4958;48.150;11.506;2023-08-24T01:17:49;95650.56;;;27.08;63.42
9839;BME280;4958;48.150;11.506;2023-08-24T01:20:18;95642.91;;;27.07;63.49
9839;BME280;4958;48.150;11.506;2023-08-24T01:22:51;95643.94;;;27.11;63.41
9839;BME280;4958;48.150;11.506;2023-08-24T01:25:24;95642.63;;;27.08;63.27
9839;BME280;4958;48.150;11.506;2023-08-24T01:27:57;95627.06;;;27.07;63.27
9839;BME280;4958;48.150;11.506;2023-08-24T01:30:25;95625.19;;;27.07;63.10
9839;BME280;4958;48.150;11.506;2023-08-24T01:32:52;95640.59;;;27.00;63.50
9839;BME280;4958;48.150;11.506;2023-08-24T01:35:18;95633.72;;;26.99;63.46
9839;BME280;4958;48.150;11.506;2023-08-24T01:37:45;95654.94;;;26.89;63.67
9839;BME280;4958;48.150;11.506;2023-08-24T01:40:15;95653.13;;;26.84;63.66
9839;BME280;4958;48.150;11.506;2023-08-24T01:42:47;95652.56;;;26.88;63.97
9839;BME280;4958;48.150;11.506;2023-08-24T01:45:17;95666.44;;;26.74;64.62
9839;BME280;4958;48.150;11.506;2023-08-24T01:47:45;95679.63;;;26.74;64.42
9839;BME280;4958;48.150;11.506;2023-08-24T01:50:13;95663.28;;;26.72;64.27
9839;BME280;4958;48.150;11.506;2023-08-24T01:52:41;95668.63;;;26.57;64.63
9839;BME280;4958;48.150;11.506;2023-08-24T01:55:08;95677.41;;;26.53;65.03
9839;BME280;4958;48.150;11.506;2023-08-24T01:57:35;95686.41;;;26.46;65.51
9839;BME280;4958;48.150;11.506;2023-08-24T02:00:02;95680.59;;;26.49;65.80
9839;BME280;4958;48.150;11.506;2023-08-24T02:02:34;95679.00;;;26.48;65.72
9839;BME280;4958;48.150;11.506;2023-08-24T02:05:01;95677.16;;;26.49;65.62
9839;BME280;4958;48.150;11.506;2023-08-24T02:07:28;95682.19;;;26.51;66.10
9839;BME280;4958;48.150;11.506;2023-08-24T02:09:54;95684.03;;;26.50;65.99
9839;BME280;4958;48.150;11.506;2023-08-24T02:12:21;95677.41;;;26.53;65.84
9839;BME280;4958;48.150;11.506;2023-08-24T02:14:48;95663.34;;;26.62;65.19
9839;BME280;4958;48.150;11.506;2023-08-24T02:17:14;95665.19;;;26.62;65.59
9839;BME280;4958;48.150;11.506;2023-08-24T02:19:42;95650.88;;;26.68;64.74
9839;BME280;4958;48.150;11.506;2023-08-24T02:22:08;95644.81;;;26.67;64.62
9839;BME280;4958;48.150;11.506;2023-08-24T02:24:34;95639.25;;;26.69;64.52
9839;BME280;4958;48.150;11.506;2023-08-24T02:27:01;95642.69;;;26.69;64.56
9839;BME280;4958;48.150;11.506;2023-08-24T02:29:27;95656.56;;;26.51;65.33
9839;BME280;4958;48.150;11.506;2023-08-24T02:31:55;95657.09;;;26.48;65.43
9839;BME280;4958;48.150;11.506;2023-08-24T02:34:21;95667.44;;;26.39;66.13
9839;BME280;4958;48.150;11.506;2023-08-24T02:36:49;95668.75;;;26.42;66.01
9839;BME280;4958;48.150;11.506;2023-08-24T02:39:15;95673.75;;;26.43;66.27
9839;BME280;4958;48.150;11.506;2023-08-24T02:41:42;95680.44;;;26.36;66.44
9839;BME280;4958;48.150;11.506;2023-08-24T02:44:08;95666.38;;;26.40;66.12
9839;BME280;4958;48.150;11.506;2023-08-24T02:46:35;95661.03;;;26.51;65.20
9839;BME280;4958;48.150;11.506;2023-08-24T02:49:01;95661.63;;;26.42;66.18
9839;BME280;4958;48.150;11.506;2023-08-24T02:51:28;95661.63;;;26.42;65.90
9839;BME280;4958;48.150;11.506;2023-08-24T02:53:57;95654.25;;;26.39;65.77
9839;BME280;4958;48.150;11.506;2023-08-24T02:56:24;95664.06;;;26.29;66.09
9839;BME280;4958;48.150;11.506;2023-08-24T02:58:50;95669.91;;;26.21;66.55
9839;BME280;4958;48.150;11.506;2023-08-24T03:01:17;95672.34;;;26.12;66.92
9839;BME280;4958;48.150;11.506;2023-08-24T03:03:44;95684.50;;;26.08;67.18
9839;BME280;4958;48.150;11.506;2023-08-24T03:06:10;95706.44;;;25.98;68.04
9839;BME280;4958;48.150;11.506;2023-08-24T03:08:37;95689.00;;;26.02;67.62
9839;BME280;4958;48.150;11.506;2023-08-24T03:11:04;95683.97;;;26.06;67.40
9839;BME280;4958;48.150;11.506;2023-08-24T03:13:31;95684.75;;;26.06;67.40
9839;BME280;4958;48.150;11.506;2023-08-24T03:16:03;95680.81;;;26.09;67.55
9839;BME280;4958;48.150;11.506;2023-08-24T03:18:29;95675.53;;;26.04;67.69
9839;BME280;4958;48.150;11.506;2023-08-24T03:20:56;95664.44;;;26.07;67.45
9839;BME280;4958;48.150;11.506;2023-08-24T03:23:22;95662.84;;;26.11;67.30
9839;BME280;4958;48.150;11.506;2023-08-24T03:25:49;95658.38;;;26.06;67.19
9839;BME280;4958;48.150;11.506;2023-08-24T03:28:17;95666.28;;;26.06;67.30
9839;BME280;4958;48.150;11.506;2023-08-24T03:30:46;95665.25;;;26.02;67.61
9839;BME280;4958;48.150;11.506;2023-08-24T03:33:13;95664.97;;;26.04;66.92
9839;BME280;4958;48.150;11.506;2023-08-24T03:35:40;95658.91;;;26.03;66.95
9839;BME280;4958;48.150;11.506;2023-08-24T03:38:06;95659.44;;;26.05;66.89
9839;BME280;4958;48.150;11.506;2023-08-24T03:40:33;95661.56;;;26.03;66.84
9839;BME280;4958;48.150;11.506;2023-08-24T03:43:01;95662.13;;;25.95;67.66
9839;BME280;4958;48.150;11.506;2023-08-24T03:45:28;95671.41;;;25.83;67.71
9839;BME280;4958;48.150;11.506;2023-08-24T03:47:55;95669.81;;;25.92;67.61
9839;BME280;4958;48.150;11.506;2023-08-24T03:50:22;95675.34;;;25.85;67.75
9839;BME280;4958;48.150;11.506;2023-08-24T03:52:49;95689.13;;;25.72;68.81
9839;BME280;4958;48.150;11.506;2023-08-24T03:55:16;95708.94;;;25.59;69.57
9839;BME280;4958;48.150;11.506;2023-08-24T03:57:42;95706.31;;;25.59;69.35
9839;BME280;4958;48.150;11.506;2023-08-24T04:00:10;95693.34;;;25.73;68.68
9839;BME280;4958;48.150;11.506;2023-08-24T04:02:38;95676.22;;;25.75;67.83
9839;BME280;4958;48.150;11.506;2023-08-24T04:05:04;95682.22;;;25.81;67.70
9839;BME280;4958;48.150;11.506;2023-08-24T04:07:31;95666.66;;;25.90;67.10
9839;BME280;4958;48.150;11.506;2023-08-24T04:09:58;95742.63;;;25.93;69.93
9839;BME280;4958;48.150;11.506;2023-08-24T04:12:24;95726.72;;;26.13;69.26
9839;BME280;4958;48.150;11.506;2023-08-24T04:14:51;95691.78;;;26.26;68.16
9839;BME280;4958;48.150;11.506;2023-08-24T04:17:17;95685.19;;;26.29;67.83
9839;BME280;4958;48.150;11.506;2023-08-24T04:19:45;95656.34;;;26.42;67.08
9839;BME280;4958;48.150;11.506;2023-08-24T04:22:12;95647.09;;;26.45;66.96
9839;BME280;4958;48.150;11.506;2023-08-24T04:24:38;95642.31;;;26.47;66.41
9839;BME280;4958;48.150;11.506;2023-08-24T04:27:04;95625.13;;;26.49;65.59
9839;BME280;4958;48.150;11.506;2023-08-24T04:29:31;95626.38;;;26.57;65.25
9839;BME280;4958;48.150;11.506;2023-08-24T04:31:58;95654.34;;;26.63;66.55
9839;BME280;4958;48.150;11.506;2023-08-24T04:34:24;95603.84;;;26.70;64.71
9839;BME280;4958;48.150;11.506;2023-08-24T04:36:55;95588.13;;;26.55;63.88
9839;BME280;4958;48.150;11.506;2023-08-24T04:39:22;95622.50;;;26.49;65.33
9839;BME280;4958;48.150;11.506;2023-08-24T04:41:49;95643.28;;;26.56;65.26
9839;BME280;4958;48.150;11.506;2023-08-24T04:44:16;95618.44;;;26.62;64.72
9839;BME280;4958;48.150;11.506;2023-08-24T04:46:42;95625.81;;;26.65;64.78
9839;BME280;4958;48.150;11.506;2023-08-24T04:49:08;95639.22;;;26.74;65.23
9839;BME280;4958;48.150;11.506;2023-08-24T04:51:35;95596.44;;;26.72;64.28
9839;BME280;4958;48.150;11.506;2023-08-24T04:54:03;95585.06;;;26.71;64.21
9839;BME280;4958;48.150;11.506;2023-08-24T04:56:29;95620.72;;;26.74;64.78
9839;BME280;4958;48.150;11.506;2023-08-24T04:58:56;95596.59;;;26.80;64.30
9839;BME280;4958;48.150;11.506;2023-08-24T05:01:23;95570.69;;;26.82;63.81
9839;BME280;4958;48.150;11.506;2023-08-24T05:03:50;95592.09;;;26.81;63.81
9839;BME280;4958;48.150;11.506;2023-08-24T05:06:17;95585.88;;;26.72;64.26
9839;BME280;4958;48.150;11.506;2023-08-24T05:08:43;95592.31;;;26.56;64.35
9839;BME280;4958;48.150;11.506;2023-08-24T05:11:16;95608.75;;;26.53;64.56
9839;BME280;4958;48.150;11.506;2023-08-24T05:13:43;95609.47;;;26.58;64.87
9839;BME280;4958;48.150;11.506;2023-08-24T05:16:10;95607.06;;;26.62;64.86
9839;BME280;4958;48.150;11.506;2023-08-24T05:18:37;95589.34;;;26.67;63.85
9839;BME280;4958;48.150;11.506;2023-08-24T05:21:04;95598.28;;;26.71;64.50
9839;BME280;4958;48.150;11.506;2023-08-24T05:23:31;95592.75;;;26.68;64.47
9839;BME280;4958;48.150;11.506;2023-08-24T05:25:57;95593.50;;;26.73;63.91
9839;BME280;4958;48.150;11.506;2023-08-24T05:28:25;95570.47;;;26.79;63.04
9839;BME280;4958;48.150;11.506;2023-08-24T05:30:52;95573.84;;;26.84;63.33
9839;BME280;4958;48.150;11.506;2023-08-24T05:33:19;95571.75;;;26.81;63.80
9839;BME280;4958;48.150;11.506;2023-08-24T05:35:46;95579.56;;;26.97;64.05
9839;BME280;4958;48.150;11.506;2023-08-24T05:38:12;95531.38;;;27.05;62.37
9839;BME280;4958;48.150;11.506;2023-08-24T05:40:39;95520.41;;;26.93;62.74
9839;BME280;4958;48.150;11.506;2023-08-24T05:43:07;95549.31;;;26.79;62.85
9839;BME280;4958;48.150;11.506;2023-08-24T05:45:36;95574.28;;;26.68;63.61
9839;BME280;4958;48.150;11.506;2023-08-24T05:48:05;95599.00;;;26.77;64.21
9839;BME280;4958;48.150;11.506;2023-08-24T05:50:31;95602.22;;;26.74;64.52
9839;BME280;4958;48.150;11.506;2023-08-24T05:52:58;95609.25;;;26.83;64.73
9839;BME280;4958;48.150;11.506;2023-08-24T05:55:25;95612.47;;;26.80;64.72
9839;BME280;4958;48.150;11.506;2023-08-24T05:57:51;95621.59;;;26.93;65.03
9839;BME280;4958;48.150;11.506;2023-08-24T06:00:19;95613.63;;;26.98;65.13
9839;BME280;4958;48.150;11.506;2023-08-24T06:02:48;95616.00;;;27.00;64.74
9839;BME280;4958;48.150;11.506;2023-08-24T06:05:15;95622.31;;;27.04;65.03
9839;BME280;4958;48.150;11.506;2023-08-24T06:07:43;95618.22;;;27.16;65.31
9839;BME280;4958;48.150;11.506;2023-08-24T06:10:11;95619.78;;;27.17;65.25
9839;BME280;4958;48.150;11.506;2023-08-24T06:12:38;95631.84;;;27.29;64.95
9839;BME280;4958;48.150;11.506;2023-08-24T06:15:05;95633.94;;;27.32;65.39
9839;BME280;4958;48.150;11.506;2023-08-24T06:17:35;95648.03;;;27.22;66.04
9839;BME280;4958;48.150;11.506;2023-08-24T06:20:03;95682.88;;;27.00;67.47
9839;BME280;4958;48.150;11.506;2023-08-24T06:22:29;95691.88;;;26.99;68.06
9839;BME280;4958;48.150;11.506;2023-08-24T06:24:56;95708.56;;;26.90;68.53
9839;BME280;4958;48.150;11.506;2023-08-24T06:27:24;95712.31;;;26.83;68.98
9839;BME280;4958;48.150;11.506;2023-08-24T06:29:51;95729.78;;;26.79;69.71
9839;BME280;4958;48.150;11.506;2023-08-24T06:32:17;95730.06;;;26.78;69.96
9839;BME280;4958;48.150;11.506;2023-08-24T06:34:44;95727.00;;;26.61;69.95
9839;BME280;4958;48.150;11.506;2023-08-24T06:37:12;95724.56;;;26.69;69.91
9839;BME280;4958;48.150;11.506;2023-08-24T06:39:38;95718.69;;;26.77;69.47
9839;BME280;4958;48.150;11.506;2023-08-24T06:42:05;95681.25;;;26.70;68.73
9839;BME280;4958;48.150;11.506;2023-08-24T06:44:31;95684.06;;;26.79;68.71
9839;BME280;4958;48.150;11.506;2023-08-24T06:46:58;95678.00;;;26.78;68.22
9839;BME280;4958;48.150;11.506;2023-08-24T06:49:24;95683.03;;;26.75;68.16
9839;BME280;4958;48.150;11.506;2023-08-24T06:51:51;95659.59;;;26.68;67.82
9839;BME280;4958;48.150;11.506;2023-08-24T06:54:18;95645.28;;;26.74;67.17
9839;BME280;4958;48.150;11.506;2023-08-24T06:56:45;95625.88;;;26.89;66.11
9839;BME280;4958;48.150;11.506;2023-08-24T06:59:11;95594.63;;;26.96;65.19
9839;BME280;4958;48.150;11.506;2023-08-24T07:01:38;95578.56;;;27.16;64.42
9839;BME280;4958;48.150;11.506;2023-08-24T07:04:05;95537.16;;;27.31;63.42
9839;BME280;4958;48.150;11.506;2023-08-24T07:06:33;95518.97;;;27.48;63.13
9839;BME280;4958;48.150;11.506;2023-08-24T07:08:59;95456.34;;;27.43;61.17
9839;BME280;4958;48.150;11.506;2023-08-24T07:11:27;95429.31;;;27.46;60.98
9839;BME280;4958;48.150;11.506;2023-08-24T07:13:53;95416.72;;;27.38;60.92
9839;BME280;4958;48.150;11.506;2023-08-24T07:16:20;95451.91;;;27.39;60.88
9839;BME280;4958;48.150;11.506;2023-08-24T07:18:46;95456.47;;;27.52;61.64
9839;BME280;4958;48.150;11.506;2023-08-24T07:21:12;95453.16;;;27.65;61.68
9839;BME280;4958;48.150;11.506;2023-08-24T07:23:39;95453.91;;;27.84;61.25
9839;BME280;4958;48.150;11.506;2023-08-24T07:26:06;95442.56;;;27.98;60.74
9839;BME280;4958;48.150;11.506;2023-08-24T07:28:35;95458.09;;;28.04;60.79
9839;BME280;4958;48.150;11.506;2023-08-24T07:31:07;95449.94;;;28.19;61.05
9839;BME280;4958;48.150;11.506;2023-08-24T07:33:33;95441.50;;;28.31;60.81
9839;BME280;4958;48.150;11.506;2023-08-24T07:35:59;95418.56;;;28.40;60.61
9839;BME280;4958;48.150;11.506;2023-08-24T07:38:29;95423.66;;;28.37;60.87
9839;BME280;4958;48.150;11.506;2023-08-24T07:40:56;95410.53;;;28.59;60.00
9839;BME280;4958;48.150;11.506;2023-08-24T07:43:22;95390.19;;;28.68;59.55
9839;BME280;4958;48.150;11.506;2023-08-24T07:45:50;95388.25;;;28.74;59.68
9839;BME280;4958;48.150;11.506;2023-08-24T07:48:17;95374.31;;;28.96;59.18
9839;BME280;4958;48.150;11.506;2023-08-24T07:50:43;95362.72;;;29.05;58.62
9839;BME280;4958;48.150;11.506;2023-08-24T07:53:10;95367.22;;;29.05;59.01
9839;BME280;4958;48.150;11.506;2023-08-24T07:55:36;95345.25;;;29.27;58.11
9839;BME280;4958;48.150;11.506;2023-08-24T07:58:03;95326.25;;;29.33;57.34
9839;BME280;4958;48.150;11.506;2023-08-24T08:00:29;95333.09;;;29.48;57.35
9839;BME280;4958;48.150;11.506;2023-08-24T08:02:57;95320.50;;;29.53;57.26
9839;BME280;4958;48.150;11.506;2023-08-24T08:05:23;95327.78;;;29.70;57.57
9839;BME280;4958;48.150;11.506;2023-08-24T08:07:50;95305.31;;;29.99;57.03
9839;BME280;4958;48.150;11.506;2023-08-24T08:10:16;95275.69;;;30.22;55.83
9839;BME280;4958;48.150;11.506;2023-08-24T08:12:45;95242.31;;;30.39;54.83
9839;BME280;4958;48.150;11.506;2023-08-24T08:15:11;95235.75;;;30.45;55.34
9839;BME280;4958;48.150;11.506;2023-08-24T08:17:38;95214.69;;;30.66;54.85
9839;BME280;4958;48.150;11.506;2023-08-24T08:20:07;95175.13;;;30.73;54.20
9839;BME280;4958;48.150;11.506;2023-08-24T08:22:33;95166.38;;;30.72;53.43
9839;BME280;4958;48.150;11.506;2023-08-24T08:25:04;95160.91;;;30.77;53.36
9839;BME280;4958;48.150;11.506;2023-08-24T08:27:31;95166.50;;;30.84;53.46
9839;BME280;4958;48.150;11.506;2023-08-24T08:29:58;95173.56;;;30.89;53.90
9839;BME280;4958;48.150;11.506;2023-08-24T08:32:24;95157.72;;;31.01;53.10
9839;BME280;4958;48.150;11.506;2023-08-24T08:34:52;95145.38;;;31.05;52.88
9839;BME280;4958;48.150;11.506;2023-08-24T08:37:20;95144.88;;;31.20;52.79
9839;BME280;4958;48.150;11.506;2023-08-24T08:39:47;95123.19;;;31.48;52.22
9839;BME280;4958;48.150;11.506;2023-08-24T08:42:14;95106.66;;;31.72;52.19
9839;BME280;4958;48.150;11.506;2023-08-24T08:44:41;95092.44;;;31.88;51.89
9839;BME280;4958;48.150;11.506;2023-08-24T08:47:09;95043.00;;;32.00;50.76
9839;BME280;4958;48.150;11.506;2023-08-24T08:49:37;95031.75;;;32.15;50.40
9839;BME280;4958;48.150;11.506;2023-08-24T08:52:05;95023.22;;;32.42;50.44
9839;BME280;4958;48.150;11.506;2023-08-24T08:54:33;95017.44;;;32.40;50.09
9839;BME280;4958;48.150;11.506;2023-08-24T08:57:00;95003.94;;;32.57;49.71
9839;BME280;4958;48.150;11.506;2023-08-24T08:59:27;94989.97;;;32.60;49.09
9839;BME280;4958;48.150;11.506;2023-08-24T09:01:56;94971.13;;;32.78;49.14
9839;BME280;4958;48.150;11.506;2023-08-24T09:04:23;94973.78;;;32.78;49.35
9839;BME280;4958;48.150;11.506;2023-08-24T09:06:50;94941.88;;;32.93;48.29
9839;BME280;4958;48.150;11.506;2023-08-24T09:09:16;94957.09;;;32.69;48.55
9839;BME280;4958;48.150;11.506;2023-08-24T09:11:45;94966.16;;;32.55;49.15
9839;BME280;4958;48.150;11.506;2023-08-24T09:14:12;94953.34;;;32.94;49.11
9839;BME280;4958;48.150;11.506;2023-08-24T09:16:40;94924.00;;;32.82;48.17
9839;BME280;4958;48.150;11.506;2023-08-24T09:19:11;94924.25;;;32.89;48.87
9839;BME280;4958;48.150;11.506;2023-08-24T09:21:39;94884.00;;;33.06;47.87
9839;BME280;4958;48.150;11.506;2023-08-24T09:24:07;94829.25;;;33.24;46.90
9839;BME280;4958;48.150;11.506;2023-08-24T09:26:35;94812.16;;;33.25;46.85
9839;BME280;4958;48.150;11.506;2023-08-24T09:29:11;94808.53;;;33.34;47.12
9839;BME280;4958;48.150;11.506;2023-08-24T09:31:38;94771.44;;;33.28;46.26
9839;BME280;4958;48.150;11.506;2023-08-24T09:34:05;94746.97;;;33.26;45.75
9839;BME280;4958;48.150;11.506;2023-08-24T09:36:32;94737.72;;;33.24;45.87
9839;BME280;4958;48.150;11.506;2023-08-24T09:38:59;94750.94;;;33.33;46.12
9839;BME280;4958;48.150;11.506;2023-08-24T09:41:37;94801.13;;;32.87;46.95
9839;BME280;4958;48.150;11.506;2023-08-24T09:44:04;94844.66;;;32.67;47.74
9839;BME280;4958;48.150;11.506;2023-08-24T09:46:31;94858.88;;;32.58;48.28
9839;BME280;4958;48.150;11.506;2023-08-24T09:48:58;94871.44;;;32.58;48.51
9839;BME280;4958;48.150;11.506;2023-08-24T09:51:27;94853.31;;;32.64;48.32
9839;BME280;4958;48.150;11.506;2023-08-24T09:53:57;94824.66;;;32.85;47.62
9839;BME280;4958;48.150;11.506;2023-08-24T09:56:25;94810.97;;;32.99;47.62
9839;BME280;4958;48.150;11.506;2023-08-24T09:58:54;94773.50;;;33.07;46.72
9839;BME280;4958;48.150;11.506;2023-08-24T10:01:21;94729.25;;;33.34;46.01
9839;BME280;4958;48.150;11.506;2023-08-24T10:03:51;94711.63;;;33.45;45.88
9839;BME280;4958;48.150;11.506;2023-08-24T10:06:19;94697.50;;;33.45;45.62
9839;BME280;4958;48.150;11.506;2023-08-24T10:08:49;94723.25;;;33.53;46.03
9839;BME280;4958;48.150;11.506;2023-08-24T10:11:21;94694.94;;;33.64;45.41
9839;BME280;4958;48.150;11.506;2023-08-24T10:13:53;94678.50;;;33.78;45.13
9839;BME280;4958;48.150;11.506;2023-08-24T10:16:21;94650.03;;;34.01;44.40
9839;BME280;4958;48.150;11.506;2023-08-24T10:18:50;94604.75;;;34.08;43.72
9839;BME280;4958;48.150;11.506;2023-08-24T10:21:17;94562.22;;;34.19;42.76
9839;BME280;4958;48.150;11.506;2023-08-24T10:23:45;94515.69;;;34.20;42.66
9839;BME280;4958;48.150;11.506;2023-08-24T10:26:12;94435.50;;;34.20;41.04
9839;BME280;4958;48.150;11.506;2023-08-24T10:28:40;94464.63;;;34.25;41.96
9839;BME280;4958;48.150;11.506;2023-08-24T10:31:07;94546.13;;;34.15;43.01
9839;BME280;4958;48.150;11.506;2023-08-24T10:33:34;94573.06;;;34.45;42.99
9839;BME280;4958;48.150;11.506;2023-08-24T10:36:05;94536.09;;;34.70;42.03
9839;BME280;4958;48.150;11.506;2023-08-24T10:38:35;94342.22;;;34.57;39.66
9839;BME280;4958;48.150;11.506;2023-08-24T10:41:06;94290.16;;;34.51;38.59
9839;BME280;4958;48.150;11.506;2023-08-24T10:43:34;94318.59;;;34.36;39.41
9839;BME280;4958;48.150;11.506;2023-08-24T10:46:01;94340.19;;;34.50;40.02
9839;BME280;4958;48.150;11.506;2023-08-24T10:48:30;94286.06;;;34.57;38.77
9839;BME280;4958;48.150;11.506;2023-08-24T10:51:20;94268.47;;;34.56;38.56
9839;BME280;4958;48.150;11.506;2023-08-24T10:53:52;94261.88;;;34.50;38.76
9839;BME280;4958;48.150;11.506;2023-08-24T10:56:19;94320.66;;;34.46;39.65
9839;BME280;4958;48.150;11.506;2023-08-24T10:58:46;94319.94;;;34.49;39.59
9839;BME280;4958;48.150;11.506;2023-08-24T11:01:16;94307.81;;;34.55;39.25
9839;BME280;4958;48.150;11.506;2023-08-24T11:03:49;94288.56;;;34.46;39.02
9839;BME280;4958;48.150;11.506;2023-08-24T11:06:20;94303.75;;;34.39;39.53
9839;BME280;4958;48.150;11.506;2023-08-24T11:08:48;94324.22;;;34.54;39.67
9839;BME280;4958;48.150;11.506;2023-08-24T11:11:19;94256.53;;;34.50;39.03
9839;BME280;4958;48.150;11.506;2023-08-24T11:14:16;94239.38;;;34.51;38.67
9839;BME280;4958;48.150;11.506;2023-08-24T11:16:45;94224.09;;;34.51;38.15
9839;BME280;4958;48.150;11.506;2023-08-24T11:19:13;94259.31;;;34.57;38.97
9839;BME280;4958;48.150;11.506;2023-08-24T11:21:42;94217.38;;;34.61;38.06
9839;BME280;4958;48.150;11.506;2023-08-24T11:24:10;94201.75;;;34.63;38.05
9839;BME280;4958;48.150;11.506;2023-08-24T11:26:39;94221.44;;;34.78;38.35
9839;BME280;4958;48.150;11.506;2023-08-24T11:29:07;94148.78;;;34.76;37.19
9839;BME280;4958;48.150;11.506;2023-08-24T11:31:34;94059.31;;;34.70;35.94
9839;BME280;4958;48.150;11.506;2023-08-24T11:34:00;94047.91;;;34.76;36.07
9839;BME280;4958;48.150;11.506;2023-08-24T11:36:28;94074.41;;;34.88;36.17
9839;BME280;4958;48.150;11.506;2023-08-24T11:38:58;93980.59;;;34.67;35.03
9839;BME280;4958;48.150;11.506;2023-08-24T11:41:26;93980.63;;;34.71;34.79
9839;BME280;4958;48.150;11.506;2023-08-24T11:43:59;93975.13;;;34.93;34.64
9839;BME280;4958;48.150;11.506;2023-08-24T11:46:28;93995.06;;;35.03;34.86
9839;BME280;4958;48.150;11.506;2023-08-24T11:48:55;93987.16;;;35.17;34.79
9839;BME280;4958;48.150;11.506;2023-08-24T11:51:21;93937.09;;;35.25;33.87
9839;BME280;4958;48.150;11.506;2023-08-24T11:53:48;93941.78;;;35.31;33.78
9839;BME280;4958;48.150;11.506;2023-08-24T11:56:16;93894.75;;;35.30;33.10
9839;BME280;4958;48.150;11.506;2023-08-24T11:58:48;93881.78;;;35.40;33.12
9839;BME280;4958;48.150;11.506;2023-08-24T12:01:14;93826.22;;;35.22;32.58
9839;BME280;4958;48.150;11.506;2023-08-24T12:03:41;93862.66;;;35.38;32.48
9839;BME280;4958;48.150;11.506;2023-08-24T12:06:11;93798.47;;;35.52;31.79
9839;BME280;4958;48.150;11.506;2023-08-24T12:08:39;93796.94;;;35.54;31.58
9839;BME280;4958;48.150;11.506;2023-08-24T12:11:10;93796.97;;;35.69;31.55
9839;BME280;4958;48.150;11.506;2023-08-24T12:13:42;93798.53;;;35.80;31.60
9839;BME280;4958;48.150;11.506;2023-08-24T12:16:10;93828.41;;;35.79;31.99
9839;BME280;4958;48.150;11.506;2023-08-24T12:18:46;93850.63;;;35.93;32.38
9839;BME280;4958;48.150;11.506;2023-08-24T12:21:13;93871.28;;;35.93;32.62
9839;BME280;4958;48.150;11.506;2023-08-24T12:23:39;93887.00;;;35.94;33.08
9839;BME280;4958;48.150;11.506;2023-08-24T12:26:06;93883.97;;;36.10;33.06
9839;BME280;4958;48.150;11.506;2023-08-24T12:28:33;93835.34;;;35.97;32.16
9839;BME280;4958;48.150;11.506;2023-08-24T12:31:01;93780.97;;;35.97;31.21
9839;BME280;4958;48.150;11.506;2023-08-24T12:33:29;93740.00;;;36.00;30.99
9839;BME280;4958;48.150;11.506;2023-08-24T12:35:56;93687.56;;;35.99;30.21
9839;BME280;4958;48.150;11.506;2023-08-24T12:38:24;93708.25;;;36.02;30.31
9839;BME280;4958;48.150;11.506;2023-08-24T12:40:51;93717.44;;;35.90;30.60
9839;BME280;4958;48.150;11.506;2023-08-24T12:43:18;93707.44;;;35.70;30.48
9839;BME280;4958;48.150;11.506;2023-08-24T12:45:45;93796.94;;;35.61;31.80
9839;BME280;4958;48.150;11.506;2023-08-24T12:48:13;93813.00;;;35.61;31.92
9839;BME280;4958;48.150;11.506;2023-08-24T12:50:40;93758.66;;;35.47;31.16
9839;BME280;4958;48.150;11.506;2023-08-24T12:53:06;93708.97;;;35.63;30.55
9839;BME280;4958;48.150;11.506;2023-08-24T12:55:34;93642.84;;;35.78;29.78
9839;BME280;4958;48.150;11.506;2023-08-24T12:58:02;93671.91;;;35.97;30.21
9839;BME280;4958;48.150;11.506;2023-08-24T13:00:28;93733.13;;;36.13;31.03
9839;BME280;4958;48.150;11.506;2023-08-24T13:02:55;93746.16;;;36.29;31.46
9839;BME280;4958;48.150;11.506;2023-08-24T13:05:23;93754.97;;;36.33;31.09
9839;BME280;4958;48.150;11.506;2023-08-24T13:07:49;93769.50;;;36.53;31.48
9839;BME280;4958;48.150;11.506;2023-08-24T13:10:16;93728.84;;;36.65;30.78
9839;BME280;4958;48.150;11.506;2023-08-24T13:12:43;93730.44;;;36.56;30.98